Time;durP1;ratioP1;P1;durP2;ratioP2;P2;SDS_P1;SDS_P2;PMS_P1;PMS_P2;Temp;Humidity;BMP_temperature;BMP_pressure;BME280_temperature;BME280_humidity;BME280_pressure;Samples;Min_cycle;Max_cycle;Signal;HPM_P1;HPM_P2
2022/04/25 00:02:48;;;;;;;0.20;0.20;;;13.00;99.90;;;;;;25528718;23;20274;-73
2022/04/25 00:12:52;;;;;;;0.20;0.10;;;12.90;99.90;;;;;;25503344;23;20187;-76
2022/04/25 00:23:00;;;;;;;0.20;0.00;;;12.80;99.90;;;;;;25503801;23;20198;-74
2022/04/25 00:33:04;;;;;;;0.20;0.10;;;12.70;99.90;;;;;;25528814;23;20155;-74
2022/04/25 00:43:09;;;;;;;0.20;0.07;;;12.80;99.90;;;;;;25531341;23;20274;-71
2022/04/25 00:53:12;;;;;;;0.20;0.10;;;12.50;99.90;;;;;;25527553;23;20167;-71
2022/04/25 01:03:18;;;;;;;0.20;0.10;;;12.60;99.90;;;;;;25530228;23;20194;-71
2022/04/25 01:13:22;;;;;;;0.20;0.10;;;12.20;99.90;;;;;;25527214;23;20174;-72
2022/04/25 01:33:48;;;;;;;0.20;0.00;;;12.20;99.90;;;;;;25529974;23;20175;-72
2022/04/25 01:43:54;;;;;;;0.20;0.10;;;12.20;99.90;;;;;;25526254;23;20239;-74
2022/04/25 01:53:58;;;;;;;0.20;0.10;;;12.10;99.90;;;;;;25528903;23;20242;-75
2022/04/25 02:04:03;;;;;;;0.20;0.10;;;12.20;99.90;;;;;;25528684;23;20199;-74
2022/04/25 02:14:07;;;;;;;0.20;0.10;;;12.10;99.90;;;;;;25500901;23;20194;-74
2022/04/25 02:24:13;;;;;;;0.20;0.10;;;11.90;99.90;;;;;;25534499;23;20195;-74
2022/04/25 02:34:17;;;;;;;0.20;0.10;;;11.80;99.90;;;;;;25532111;23;20160;-75
2022/04/25 02:44:22;;;;;;;0.20;0.10;;;11.70;99.90;;;;;;25535379;23;20203;-73
2022/04/25 02:54:26;;;;;;;0.20;0.10;;;11.60;99.90;;;;;;25531957;23;20167;-73
2022/04/25 03:04:32;;;;;;;0.20;0.10;;;11.40;99.90;;;;;;25506686;23;20282;-73
2022/04/25 03:14:36;;;;;;;0.43;0.43;;;11.20;99.90;;;;;;25530661;23;20170;-73
2022/04/25 03:24:41;;;;;;;0.20;0.00;;;11.00;99.90;;;;;;25507375;23;20227;-73
2022/04/25 03:34:45;;;;;;;0.20;0.10;;;11.00;99.90;;;;;;25530531;23;20167;-74
2022/04/25 03:44:51;;;;;;;0.20;0.10;;;11.20;99.90;;;;;;25531713;23;20202;-73
2022/04/25 04:05:29;;;;;;;0.20;0.00;;;11.30;99.90;;;;;;25382084;23;20222;-73
2022/04/25 04:15:33;;;;;;;0.20;0.10;;;11.30;99.90;;;;;;25530123;23;20182;-72
2022/04/25 04:25:38;;;;;;;0.20;0.10;;;11.10;99.90;;;;;;25503537;23;20432;-74
2022/04/25 04:46:05;;;;;;;0.20;0.10;;;11.50;99.90;;;;;;25504652;23;20367;-71
2022/04/25 04:56:09;;;;;;;0.20;0.10;;;11.50;99.90;;;;;;25526604;23;20191;-69
2022/04/25 05:06:17;;;;;;;0.20;0.10;;;11.50;99.90;;;;;;25499846;23;20183;-73
2022/04/25 05:16:21;;;;;;;0.20;0.10;;;11.70;99.90;;;;;;25499096;23;20159;-75
2022/04/25 05:26:26;;;;;;;0.20;0.10;;;11.80;99.90;;;;;;25525642;23;20574;-77
2022/04/25 05:36:30;;;;;;;0.20;0.10;;;12.00;99.90;;;;;;25526048;23;20178;-70
2022/04/25 05:46:35;;;;;;;0.20;0.10;;;12.10;99.90;;;;;;25524401;23;20239;-73
2022/04/25 05:56:39;;;;;;;0.20;0.10;;;12.40;99.90;;;;;;25523484;23;20270;-71
2022/04/25 06:06:45;;;;;;;0.20;0.00;;;12.70;99.90;;;;;;25492412;23;20202;-71
2022/04/25 06:16:48;;;;;;;0.20;0.03;;;13.20;99.90;;;;;;25526263;23;20171;-71
2022/04/25 06:26:55;;;;;;;0.20;0.03;;;13.70;99.90;;;;;;25505350;23;20194;-73
2022/04/25 06:36:59;;;;;;;0.20;0.00;;;14.00;99.90;;;;;;25531195;23;20572;-74
2022/04/25 06:47:05;;;;;;;0.20;0.10;;;14.30;99.90;;;;;;25530373;23;20202;-73
2022/04/25 06:57:09;;;;;;;0.20;0.00;;;14.60;99.90;;;;;;25502828;23;20202;-74
2022/04/25 07:07:15;;;;;;;0.20;0.03;;;15.00;99.90;;;;;;25527561;23;20187;-75
2022/04/25 07:17:18;;;;;;;0.20;0.00;;;15.20;99.90;;;;;;25528581;23;20163;-73
2022/04/25 07:37:45;;;;;;;0.20;0.00;;;15.70;99.90;;;;;;25525877;23;20159;-73
2022/04/25 07:47:51;;;;;;;0.20;0.10;;;15.80;99.90;;;;;;25529067;23;20203;-70
2022/04/25 07:57:55;;;;;;;0.20;0.00;;;15.70;99.90;;;;;;25525975;23;20195;-72
2022/04/25 08:08:00;;;;;;;0.20;0.10;;;15.70;99.90;;;;;;25525129;23;20226;-71
2022/04/25 08:18:06;;;;;;;0.20;0.00;;;16.20;99.90;;;;;;25524984;23;20653;-70
2022/04/25 08:28:14;;;;;;;0.20;0.10;;;16.40;99.90;;;;;;25501323;23;20191;-72
2022/04/25 08:38:18;;;;;;;0.20;0.10;;;16.20;99.90;;;;;;25526870;23;20174;-71
2022/04/25 08:48:25;;;;;;;0.20;0.10;;;16.40;99.90;;;;;;25498657;23;20202;-72
2022/04/25 08:58:32;;;;;;;0.20;0.00;;;16.80;99.90;;;;;;25482948;23;20202;-71
2022/04/25 09:08:38;;;;;;;0.20;0.10;;;17.10;99.90;;;;;;25509547;23;20225;-69
2022/04/25 09:18:43;;;;;;;0.20;0.00;;;17.30;99.90;;;;;;25484887;23;20175;-72
2022/04/25 09:28:49;;;;;;;0.20;0.10;;;17.30;99.90;;;;;;25507276;23;20191;-72
2022/04/25 09:38:53;;;;;;;0.20;0.10;;;17.20;99.90;;;;;;25509237;23;20179;-72
2022/04/25 09:49:05;;;;;;;0.20;0.10;;;17.70;99.90;;;;;;25510912;23;20206;-73
2022/04/25 09:59:10;;;;;;;0.20;0.07;;;17.90;99.90;;;;;;25510623;23;20234;-73
2022/04/25 10:09:17;;;;;;;0.20;0.10;;;18.10;99.90;;;;;;25510610;23;20216;-70
2022/04/25 10:19:22;;;;;;;0.20;0.10;;;17.70;99.90;;;;;;25481701;23;20275;-72
2022/04/25 10:29:30;;;;;;;1.83;1.73;;;18.10;99.90;;;;;;25505026;23;20198;-70
2022/04/25 10:39:47;;;;;;;0.20;0.10;;;18.90;99.90;;;;;;25482887;23;20199;-72
2022/04/25 10:50:05;;;;;;;0.20;0.10;;;18.30;99.90;;;;;;25515476;23;20382;-71
2022/04/25 11:01:00;;;;;;;0.20;0.10;;;18.60;99.90;;;;;;25513117;23;20497;-70
2022/04/25 11:11:23;;;;;;;0.20;0.10;;;19.10;99.90;;;;;;25402739;23;20221;-76
2022/04/25 11:21:32;;;;;;;0.20;0.00;;;19.30;99.90;;;;;;25512539;23;20249;-75
2022/04/25 11:31:38;;;;;;;0.20;0.10;;;19.30;99.90;;;;;;25514837;23;20237;-75
2022/04/25 11:41:43;;;;;;;0.20;0.00;;;20.10;99.90;;;;;;25485104;23;20199;-77
2022/04/25 11:52:10;;;;;;;0.20;0.10;;;20.70;99.90;;;;;;25510440;23;20175;-76
2022/04/25 12:02:15;;;;;;;0.20;0.10;;;21.10;99.90;;;;;;25513755;23;20209;-77
2022/04/25 12:23:00;;;;;;;0.30;0.27;;;21.80;99.90;;;;;;25397605;23;20195;-72
2022/04/25 12:33:09;;;;;;;0.33;0.27;;;21.90;99.90;;;;;;25503682;23;20235;-75
2022/04/25 12:43:13;;;;;;;0.20;0.10;;;22.50;99.90;;;;;;25454765;23;20261;-74
2022/04/25 12:53:39;;;;;;;0.20;0.10;;;22.50;99.90;;;;;;25511801;23;20494;-73
2022/04/25 13:04:04;;;;;;;0.20;0.00;;;22.40;99.90;;;;;;25481580;23;20199;-74
2022/04/25 13:14:09;;;;;;;0.20;0.10;;;23.10;99.90;;;;;;25510706;23;20242;-70
2022/04/25 13:24:13;;;;;;;0.20;0.00;;;22.80;99.90;;;;;;25510651;23;20186;-69
2022/04/25 13:34:19;;;;;;;0.20;0.10;;;23.30;99.90;;;;;;25481925;23;20175;-70
2022/04/25 13:44:25;;;;;;;0.20;0.00;;;23.20;99.90;;;;;;25506067;23;20207;-68
2022/04/25 13:54:31;;;;;;;0.20;0.00;;;23.20;99.90;;;;;;25511753;23;20206;-68
2022/04/25 14:04:36;;;;;;;0.20;0.10;;;23.40;99.90;;;;;;25485004;23;20195;-69
2022/04/25 14:14:42;;;;;;;0.20;0.00;;;24.40;99.90;;;;;;25512409;23;20186;-70
2022/04/25 14:24:45;;;;;;;0.20;0.00;;;23.00;99.90;;;;;;25491108;23;20218;-69
2022/04/25 14:34:51;;;;;;;0.20;0.10;;;22.50;99.90;;;;;;25489719;23;20431;-69
2022/04/25 14:55:20;;;;;;;0.20;0.00;;;25.00;99.90;;;;;;25461683;23;20167;-69
2022/04/25 15:05:24;;;;;;;0.20;0.10;;;24.00;99.90;;;;;;25486331;23;20194;-75
2022/04/25 15:15:32;;;;;;;0.20;0.00;;;23.70;99.90;;;;;;25466684;23;20179;-74
2022/04/25 15:25:39;;;;;;;0.20;0.00;;;23.00;99.90;;;;;;25485063;23;20206;-74
2022/04/25 15:35:45;;;;;;;0.20;0.10;;;23.90;99.90;;;;;;25486176;23;20289;-75
2022/04/25 15:45:49;;;;;;;0.20;0.00;;;21.80;99.90;;;;;;25513656;23;20214;-75
2022/04/25 16:06:16;;;;;;;1.33;1.27;;;20.00;99.90;;;;;;25512021;23;20292;-75
2022/04/25 16:16:22;;;;;;;1.13;1.13;;;20.10;99.90;;;;;;25513981;23;20175;-73
2022/04/25 16:26:26;;;;;;;0.20;0.10;;;19.90;99.90;;;;;;25481966;23;20367;-72
2022/04/25 16:36:31;;;;;;;0.20;0.10;;;19.50;99.90;;;;;;25485566;23;20327;-71
2022/04/25 16:46:37;;;;;;;0.20;0.00;;;19.20;99.90;;;;;;25490354;23;20214;-76
2022/04/25 16:56:42;;;;;;;0.20;0.10;;;18.80;99.90;;;;;;25499327;23;20191;-78
2022/04/25 17:06:46;;;;;;;0.20;0.10;;;18.70;99.90;;;;;;25520777;23;20254;-79
2022/04/25 17:16:52;;;;;;;0.20;0.00;;;18.30;99.90;;;;;;25524343;23;20438;-70
2022/04/25 17:26:56;;;;;;;0.20;0.00;;;20.70;99.90;;;;;;25494452;23;20186;-70
